createdAt,value
2023-05-15T00:00:58.538Z,83.80
2023-05-15T00:02:03.325Z,83.80
2023-05-15T00:03:07.442Z,83.80
2023-05-15T00:04:11.471Z,83.80
2023-05-15T00:05:15.437Z,83.80
2023-05-15T00:06:20.591Z,83.80
2023-05-15T00:07:23.296Z,83.80
2023-05-15T00:08:26.795Z,83.80
2023-05-15T00:09:29.224Z,83.80
2023-05-15T00:10:32.657Z,83.90
2023-05-15T00:11:35.134Z,83.90
2023-05-15T00:12:38.767Z,84.00
2023-05-15T00:13:41.282Z,84.00
2023-05-15T00:14:44.705Z,84.10
2023-05-15T00:15:47.138Z,84.10
2023-05-15T00:16:50.902Z,84.10
2023-05-15T00:17:53.337Z,84.20
2023-05-15T00:18:56.862Z,84.20
2023-05-15T00:20:00.567Z,84.20
2023-05-15T00:21:04.228Z,84.20
2023-05-15T00:22:08.412Z,84.20
2023-05-15T00:23:11.958Z,84.30
2023-05-15T00:24:14.411Z,84.30
2023-05-15T00:25:19.811Z,84.40
2023-05-15T00:26:24.739Z,84.30
2023-05-15T00:27:28.261Z,84.30
2023-05-15T00:28:31.829Z,84.30
2023-05-15T00:29:35.398Z,84.30
2023-05-15T00:30:38.221Z,84.50
2023-05-15T00:31:43.653Z,84.50
2023-05-15T00:32:46.190Z,84.60
2023-05-15T00:33:49.932Z,84.70
2023-05-15T00:34:52.386Z,84.80
2023-05-15T00:35:55.898Z,84.80
2023-05-15T00:36:59.995Z,85.00
2023-05-15T00:38:04.912Z,85.10
2023-05-15T00:39:08.457Z,85.10
2023-05-15T00:40:14.989Z,85.20
2023-05-15T00:41:18.550Z,85.30
2023-05-15T00:42:23.439Z,85.40
2023-05-15T00:43:27.158Z,85.40
2023-05-15T00:44:33.423Z,85.50
2023-05-15T00:45:39.126Z,85.50
2023-05-15T00:46:43.033Z,85.60
2023-05-15T00:47:47.053Z,85.70
2023-05-15T00:48:52.030Z,85.70
2023-05-15T00:49:55.761Z,85.80
2023-05-15T00:51:00.184Z,85.80
2023-05-15T00:52:03.930Z,85.80
2023-05-15T00:53:09.191Z,85.90
2023-05-15T00:54:12.000Z,86.10
2023-05-15T00:55:16.678Z,86.10
2023-05-15T00:56:21.688Z,86.10
2023-05-15T00:57:27.458Z,86.10
2023-05-15T00:58:31.623Z,86.00
2023-05-15T00:59:35.780Z,86.00
2023-05-15T01:00:39.056Z,86.10
2023-05-15T01:01:45.276Z,86.10
2023-05-15T01:02:48.194Z,86.20
2023-05-15T01:03:52.006Z,86.20
2023-05-15T01:04:56.555Z,86.30
2023-05-15T01:06:00.973Z,86.30
2023-05-15T01:07:03.801Z,86.40
2023-05-15T01:08:21.693Z,86.40
2023-05-15T01:09:30.994Z,86.50
2023-05-15T01:10:36.183Z,86.60
2023-05-15T01:11:39.797Z,86.60
2023-05-15T01:12:45.384Z,86.60
2023-05-15T01:13:47.993Z,86.50
2023-05-15T01:14:51.996Z,86.50
2023-05-15T01:15:55.883Z,86.50
2023-05-15T01:16:59.459Z,86.50
2023-05-15T01:18:02.185Z,86.50
2023-05-15T01:19:06.802Z,86.60
2023-05-15T01:20:13.353Z,86.70
2023-05-15T01:21:54.067Z,86.80
2023-05-15T01:23:12.430Z,86.90
2023-05-15T01:24:44.563Z,87.10
2023-05-15T01:26:36.531Z,87.10
2023-05-15T01:27:48.839Z,87.10
2023-05-15T01:29:05.184Z,87.20
2023-05-15T01:30:16.314Z,87.20
2023-05-15T01:31:23.654Z,87.30
2023-05-15T01:32:35.468Z,87.30
2023-05-15T01:33:47.066Z,87.30
2023-05-15T01:35:09.527Z,87.30
2023-05-15T01:36:20.137Z,87.40
2023-05-15T01:37:29.062Z,87.40
2023-05-15T01:38:40.666Z,87.40
2023-05-15T01:39:46.850Z,87.30
2023-05-15T01:41:11.848Z,87.40
2023-05-15T01:42:16.976Z,87.40
2023-05-15T01:43:29.502Z,87.40
2023-05-15T01:44:35.923Z,87.40
2023-05-15T01:45:41.224Z,87.40
2023-05-15T01:46:49.877Z,87.40
2023-05-15T01:47:55.751Z,87.40
2023-05-15T01:49:01.135Z,87.40
2023-05-15T01:50:08.255Z,87.50
2023-05-15T01:51:14.253Z,87.50
2023-05-15T01:52:25.295Z,87.50
2023-05-15T01:53:29.135Z,87.50
2023-05-15T01:54:34.697Z,87.50
2023-05-15T01:55:39.006Z,87.60
2023-05-15T01:56:45.142Z,87.60
2023-05-15T01:57:50.904Z,87.60
2023-05-15T01:59:00.101Z,87.60
2023-05-15T02:00:05.892Z,87.70
2023-05-15T02:01:18.931Z,87.70
2023-05-15T02:02:22.068Z,87.70
2023-05-15T02:03:27.007Z,87.70
2023-05-15T02:04:30.753Z,87.80
2023-05-15T02:05:36.087Z,88.00
2023-05-15T02:06:39.982Z,88.00
2023-05-15T02:07:46.554Z,88.00
2023-05-15T02:08:51.883Z,88.00
2023-05-15T02:09:58.756Z,88.10
2023-05-15T02:11:02.796Z,88.20
2023-05-15T02:12:08.093Z,88.20
2023-05-15T02:13:11.527Z,88.20
2023-05-15T02:14:17.841Z,88.20
2023-05-15T02:15:22.306Z,88.20
2023-05-15T02:16:26.025Z,88.20
2023-05-15T02:17:29.649Z,88.20
2023-05-15T02:18:33.351Z,88.20
2023-05-15T02:19:35.970Z,88.20
2023-05-15T02:20:39.574Z,88.20
2023-05-15T02:21:42.372Z,88.30
2023-05-15T02:22:45.802Z,88.30
2023-05-15T02:23:48.407Z,88.30
2023-05-15T02:24:52.041Z,88.30
2023-05-15T02:26:15.107Z,88.40
2023-05-15T02:27:24.679Z,88.50
2023-05-15T02:28:37.218Z,88.60
2023-05-15T02:29:55.576Z,88.60
2023-05-15T02:31:05.701Z,88.60
2023-05-15T02:32:18.084Z,88.60
2023-05-15T02:33:33.033Z,88.60
2023-05-15T02:34:44.092Z,88.60
2023-05-15T02:35:57.854Z,88.60
2023-05-15T02:37:03.345Z,88.70
2023-05-15T02:38:14.325Z,88.70
2023-05-15T02:39:17.833Z,88.70
2023-05-15T02:40:24.517Z,88.80
2023-05-15T02:41:31.489Z,88.80
2023-05-15T02:42:37.401Z,88.80
2023-05-15T02:43:42.317Z,88.80
2023-05-15T02:44:50.991Z,88.90
2023-05-15T02:45:54.944Z,88.90
2023-05-15T02:46:59.332Z,89.00
2023-05-15T02:48:03.034Z,88.90
2023-05-15T02:49:06.689Z,88.90
2023-05-15T02:50:10.490Z,88.90
2023-05-15T02:51:14.860Z,89.00
2023-05-15T02:52:18.110Z,89.00
2023-05-15T02:53:22.281Z,89.00
2023-05-15T02:54:25.317Z,89.00
2023-05-15T02:55:28.813Z,89.00
2023-05-15T02:56:32.704Z,89.10
2023-05-15T02:57:35.177Z,89.00
2023-05-15T02:58:39.859Z,89.10
2023-05-15T02:59:42.792Z,89.10
2023-05-15T03:00:47.670Z,89.10
2023-05-15T03:01:50.810Z,89.10
2023-05-15T03:02:54.602Z,89.10
2023-05-15T03:03:57.241Z,89.20
2023-05-15T03:05:00.800Z,89.20
2023-05-15T03:06:03.382Z,89.30
2023-05-15T03:07:06.816Z,89.30
2023-05-15T03:08:09.369Z,89.30
2023-05-15T03:09:13.405Z,89.40
2023-05-15T03:10:16.132Z,89.50
2023-05-15T03:11:21.357Z,89.50
2023-05-15T03:12:23.946Z,89.50
2023-05-15T03:13:27.775Z,89.50
2023-05-15T03:14:30.349Z,89.50
2023-05-15T03:15:33.810Z,89.50
2023-05-15T03:16:38.973Z,89.60
2023-05-15T03:17:42.929Z,89.60
2023-05-15T03:18:47.636Z,89.60
2023-05-15T03:19:50.155Z,89.60
2023-05-15T03:20:55.053Z,89.60
2023-05-15T03:21:57.642Z,89.50
2023-05-15T03:23:01.189Z,89.60
2023-05-15T03:24:05.217Z,89.60
2023-05-15T03:25:12.574Z,89.60
2023-05-15T03:26:15.146Z,89.70
2023-05-15T03:27:18.951Z,89.70
2023-05-15T03:28:21.818Z,89.70
2023-05-15T03:29:25.833Z,89.70
2023-05-15T03:30:28.586Z,89.70
2023-05-15T03:31:32.403Z,89.80
2023-05-15T03:32:36.730Z,89.80
2023-05-15T03:33:43.267Z,89.80
2023-05-15T03:34:46.285Z,90.10
2023-05-15T03:35:51.313Z,90.10
2023-05-15T03:36:55.259Z,90.20
2023-05-15T03:37:57.907Z,90.30
2023-05-15T03:39:01.667Z,90.40
2023-05-15T03:40:07.507Z,90.40
2023-05-15T03:41:14.623Z,90.50
2023-05-15T03:42:23.971Z,90.50
2023-05-15T03:43:27.879Z,90.50
2023-05-15T03:44:30.673Z,90.60
2023-05-15T03:45:35.729Z,90.60
2023-05-15T03:46:39.194Z,90.60
2023-05-15T03:47:49.978Z,90.60
2023-05-15T03:48:54.671Z,90.70
2023-05-15T03:49:59.554Z,90.70
2023-05-15T03:51:02.425Z,90.70
2023-05-15T03:52:09.237Z,90.70
2023-05-15T03:53:13.166Z,90.50
2023-05-15T03:54:16.964Z,90.60
2023-05-15T03:55:20.698Z,90.60
2023-05-15T03:56:24.509Z,90.60
2023-05-15T03:57:28.679Z,90.60
2023-05-15T03:58:35.232Z,90.50
2023-05-15T03:59:37.975Z,90.50
2023-05-15T04:00:41.932Z,90.50
2023-05-15T04:02:02.978Z,90.40
2023-05-15T04:03:09.943Z,90.40
2023-05-15T04:04:12.383Z,90.40
2023-05-15T04:05:16.329Z,90.30
2023-05-15T04:06:19.240Z,90.40
2023-05-15T04:07:23.304Z,90.40
2023-05-15T04:08:26.824Z,90.40
2023-05-15T04:09:31.676Z,90.40
2023-05-15T04:10:34.264Z,90.40
2023-05-15T04:11:37.705Z,90.30
2023-05-15T04:12:41.203Z,90.40
2023-05-15T04:13:44.893Z,90.50
2023-05-15T04:14:48.249Z,90.50
2023-05-15T04:15:52.190Z,90.50
2023-05-15T04:16:54.884Z,90.40
2023-05-15T04:17:58.505Z,90.40
2023-05-15T04:19:04.118Z,90.40
2023-05-15T04:20:10.730Z,90.40
2023-05-15T04:21:13.373Z,90.40
2023-05-15T04:22:16.992Z,90.40
2023-05-15T04:23:19.516Z,90.40
2023-05-15T04:24:23.528Z,90.40
2023-05-15T04:25:27.766Z,90.50
2023-05-15T04:26:31.971Z,90.40
2023-05-15T04:27:34.808Z,90.40
2023-05-15T04:28:39.408Z,90.40
2023-05-15T04:29:43.125Z,90.40
2023-05-15T04:30:46.828Z,90.30
2023-05-15T04:31:49.314Z,90.30
2023-05-15T04:32:54.109Z,90.30
2023-05-15T04:33:57.104Z,90.30
2023-05-15T04:35:02.097Z,90.40
2023-05-15T04:36:07.181Z,90.40
2023-05-15T04:37:13.054Z,90.30
2023-05-15T04:38:17.211Z,90.40
2023-05-15T04:39:22.647Z,90.30
2023-05-15T04:40:25.730Z,90.30
2023-05-15T04:41:33.840Z,90.20
2023-05-15T04:42:39.387Z,90.20
2023-05-15T04:43:43.699Z,90.20
2023-05-15T04:44:47.013Z,90.10
2023-05-15T04:45:50.776Z,90.10
2023-05-15T04:46:53.636Z,90.10
2023-05-15T04:47:57.683Z,90.10
2023-05-15T04:49:00.715Z,89.90
2023-05-15T04:50:07.619Z,89.90
2023-05-15T04:51:12.672Z,89.80
2023-05-15T04:52:19.727Z,89.80
2023-05-15T04:53:22.605Z,89.80
2023-05-15T04:54:28.371Z,89.70
2023-05-15T04:55:33.595Z,89.70
2023-05-15T04:56:37.559Z,89.60
2023-05-15T04:57:40.225Z,89.60
2023-05-15T04:58:43.856Z,89.50
2023-05-15T04:59:48.541Z,89.50
2023-05-15T05:00:51.385Z,89.30
2023-05-15T05:01:56.489Z,89.50
2023-05-15T05:03:00.336Z,89.30
2023-05-15T05:04:03.316Z,89.30
2023-05-15T05:05:12.100Z,89.30
2023-05-15T05:06:14.660Z,89.30
2023-05-15T05:07:19.023Z,89.30
2023-05-15T05:08:21.628Z,89.30
2023-05-15T05:09:25.115Z,89.30
2023-05-15T05:10:28.215Z,89.10
2023-05-15T05:11:32.952Z,89.10
2023-05-15T05:12:36.941Z,89.00
2023-05-15T05:13:41.074Z,89.10
2023-05-15T05:14:44.966Z,89.10
2023-05-15T05:15:48.819Z,89.10
2023-05-15T05:16:51.403Z,89.10
2023-05-15T05:17:55.053Z,89.10
2023-05-15T05:18:58.162Z,89.00
2023-05-15T05:20:02.159Z,89.00
2023-05-15T05:21:06.427Z,89.10
2023-05-15T05:22:10.737Z,89.10
2023-05-15T05:23:15.342Z,89.10
2023-05-15T05:24:20.591Z,89.10
2023-05-15T05:25:25.116Z,89.10
2023-05-15T05:26:30.121Z,89.00
2023-05-15T05:27:32.833Z,89.00
2023-05-15T05:28:36.580Z,89.00
2023-05-15T05:29:40.080Z,88.80
2023-05-15T05:30:46.567Z,88.80
2023-05-15T05:31:49.353Z,88.80
2023-05-15T05:32:53.212Z,88.80
2023-05-15T05:33:56.385Z,88.70
2023-05-15T05:35:00.094Z,88.60
2023-05-15T05:36:04.234Z,88.60
2023-05-15T05:37:09.886Z,88.50
2023-05-15T05:38:13.610Z,88.50
2023-05-15T05:39:18.818Z,88.40
2023-05-15T05:40:24.380Z,88.30
2023-05-15T05:41:28.702Z,88.30
2023-05-15T05:42:32.656Z,88.20
2023-05-15T05:43:35.540Z,88.10
2023-05-15T05:44:39.891Z,88.00
2023-05-15T05:45:42.931Z,87.70
2023-05-15T05:46:47.274Z,87.60
2023-05-15T05:47:51.449Z,87.30
2023-05-15T05:48:57.202Z,87.30
2023-05-15T05:50:01.333Z,87.20
2023-05-15T05:51:05.684Z,87.00
2023-05-15T05:52:09.800Z,86.80
2023-05-15T05:53:14.872Z,86.60
2023-05-15T05:54:18.470Z,86.40
2023-05-15T05:55:22.923Z,86.20
2023-05-15T05:56:28.243Z,86.10
2023-05-15T05:57:31.032Z,85.90
2023-05-15T05:58:34.866Z,85.70
2023-05-15T05:59:37.566Z,85.60
2023-05-15T06:00:41.473Z,85.60
2023-05-15T06:01:44.498Z,85.40
2023-05-15T06:02:48.623Z,85.30
2023-05-15T06:03:52.105Z,85.10
2023-05-15T06:04:57.390Z,85.00
2023-05-15T06:06:00.057Z,85.00
2023-05-15T06:07:04.187Z,84.90
2023-05-15T06:08:08.192Z,84.80
2023-05-15T06:09:12.158Z,84.70
2023-05-15T06:10:15.840Z,84.60
2023-05-15T06:11:18.518Z,84.50
2023-05-15T06:12:23.197Z,84.50
2023-05-15T06:13:28.285Z,84.40
2023-05-15T06:14:32.153Z,84.30
2023-05-15T06:15:35.088Z,84.30
2023-05-15T06:16:38.704Z,84.10
2023-05-15T06:17:41.910Z,84.10
2023-05-15T06:18:48.374Z,84.10
2023-05-15T06:19:51.219Z,84.00
2023-05-15T06:20:55.172Z,83.90
2023-05-15T06:21:57.976Z,83.90
2023-05-15T06:23:01.666Z,83.80
2023-05-15T06:24:06.484Z,83.90
2023-05-15T06:25:14.266Z,83.90
2023-05-15T06:26:17.718Z,83.80
2023-05-15T06:27:21.819Z,83.80
2023-05-15T06:28:24.435Z,83.70
2023-05-15T06:29:29.656Z,83.60
2023-05-15T06:30:32.543Z,83.50
2023-05-15T06:31:37.311Z,83.40
2023-05-15T06:32:41.921Z,83.20
2023-05-15T06:33:45.737Z,83.30
2023-05-15T06:34:49.460Z,83.20
2023-05-15T06:35:53.395Z,83.20
2023-05-15T06:36:57.102Z,83.20
2023-05-15T06:37:59.888Z,83.10
2023-05-15T06:39:07.087Z,83.10
2023-05-15T06:40:13.469Z,83.10
2023-05-15T06:41:16.524Z,82.90
2023-05-15T06:42:21.546Z,82.80
2023-05-15T06:43:24.598Z,82.80
2023-05-15T06:44:28.531Z,82.70
2023-05-15T06:45:31.554Z,82.70
2023-05-15T06:46:35.293Z,82.60
2023-05-15T06:47:38.216Z,82.60
2023-05-15T06:48:42.085Z,82.60
2023-05-15T06:49:46.484Z,82.60
2023-05-15T06:50:50.440Z,82.50
2023-05-15T06:51:54.948Z,82.30
2023-05-15T06:52:59.581Z,82.10
2023-05-15T06:54:02.688Z,82.10
2023-05-15T06:55:10.410Z,82.00
2023-05-15T06:56:12.992Z,81.90
2023-05-15T06:57:17.012Z,81.70
2023-05-15T06:58:20.712Z,81.70
2023-05-15T06:59:24.640Z,81.70
2023-05-15T07:00:29.252Z,81.50
2023-05-15T07:01:33.815Z,81.40
2023-05-15T07:02:37.748Z,81.30
2023-05-15T07:03:43.090Z,81.30
2023-05-15T07:04:45.777Z,81.20
2023-05-15T07:05:49.725Z,81.20
2023-05-15T07:06:52.914Z,81.10
2023-05-15T07:07:56.741Z,81.10
2023-05-15T07:08:59.442Z,81.00
2023-05-15T07:10:03.005Z,80.90
2023-05-15T07:11:08.771Z,80.90
2023-05-15T07:12:12.312Z,80.80
2023-05-15T07:13:17.258Z,80.70
2023-05-15T07:14:21.091Z,80.60
2023-05-15T07:15:24.680Z,80.40
2023-05-15T07:16:30.072Z,80.30
2023-05-15T07:17:33.852Z,80.20
2023-05-15T07:19:45.154Z,79.90
2023-05-15T07:20:50.367Z,79.70
2023-05-15T07:21:54.301Z,79.60
2023-05-15T07:22:57.140Z,79.50
2023-05-15T07:24:01.765Z,79.40
2023-05-15T07:25:06.828Z,79.30
2023-05-15T07:26:16.878Z,79.20
2023-05-15T07:27:25.510Z,79.10
2023-05-15T07:28:28.414Z,79.10
2023-05-15T07:29:32.092Z,79.10
2023-05-15T07:30:34.656Z,79.10
2023-05-15T07:31:40.735Z,79.00
2023-05-15T07:32:44.781Z,78.90
2023-05-15T07:33:49.199Z,78.80
2023-05-15T07:34:55.137Z,78.60
2023-05-15T07:36:00.618Z,78.70
2023-05-15T07:37:06.898Z,78.60
2023-05-15T07:38:10.679Z,78.60
2023-05-15T07:39:14.151Z,78.70
2023-05-15T07:40:19.732Z,78.80
2023-05-15T07:41:23.771Z,78.80
2023-05-15T07:42:28.233Z,78.80
2023-05-15T07:44:37.392Z,78.50
2023-05-15T07:45:41.491Z,78.60
2023-05-15T07:46:45.690Z,78.60
2023-05-15T07:47:51.248Z,78.70
2023-05-15T07:48:55.952Z,78.70
2023-05-15T07:49:59.687Z,78.70
2023-05-15T07:51:04.123Z,78.80
2023-05-15T07:52:09.523Z,78.70
2023-05-15T07:53:14.259Z,78.80
2023-05-15T07:54:18.100Z,78.70
2023-05-15T07:55:22.677Z,78.70
2023-05-15T07:56:27.461Z,78.60
2023-05-15T07:57:31.979Z,78.60
2023-05-15T07:58:37.059Z,78.60
2023-05-15T07:59:40.831Z,78.40
2023-05-15T08:00:45.358Z,78.20
2023-05-15T08:01:49.853Z,78.10
2023-05-15T08:02:54.206Z,77.90
2023-05-15T08:03:58.733Z,77.90
2023-05-15T08:05:03.464Z,77.70
2023-05-15T08:06:08.577Z,77.50
2023-05-15T08:07:17.324Z,77.70
2023-05-15T08:08:20.064Z,77.80
2023-05-15T08:09:23.731Z,77.80
2023-05-15T08:10:27.486Z,77.90
2023-05-15T08:11:32.565Z,78.10
2023-05-15T08:12:35.260Z,78.20
2023-05-15T08:13:38.878Z,78.20
2023-05-15T08:14:42.932Z,78.30
2023-05-15T08:15:47.987Z,78.30
2023-05-15T08:16:51.512Z,78.40
2023-05-15T08:17:55.201Z,78.20
2023-05-15T08:19:01.545Z,78.10
2023-05-15T08:20:07.926Z,78.30
2023-05-15T08:21:13.131Z,78.60
2023-05-15T08:22:17.133Z,78.80
2023-05-15T08:23:23.277Z,79.00
2023-05-15T08:24:26.914Z,79.20
2023-05-15T08:25:30.485Z,79.40
2023-05-15T08:26:37.649Z,79.60
2023-05-15T08:27:42.397Z,79.70
2023-05-15T08:28:47.684Z,79.70
2023-05-15T08:29:54.858Z,79.80
2023-05-15T08:30:57.570Z,79.70
2023-05-15T08:32:01.539Z,79.70
2023-05-15T08:33:07.068Z,79.70
2023-05-15T08:34:13.090Z,79.80
2023-05-15T08:35:18.478Z,79.80
2023-05-15T08:36:25.742Z,79.70
2023-05-15T08:37:33.803Z,79.80
2023-05-15T08:38:38.869Z,79.80
2023-05-15T08:39:42.591Z,80.00
2023-05-15T08:40:53.691Z,80.20
2023-05-15T08:42:13.123Z,80.20
2023-05-15T08:43:19.722Z,80.30
2023-05-15T08:44:27.595Z,80.50
2023-05-15T08:45:35.587Z,80.60
2023-05-15T08:46:39.954Z,80.80
2023-05-15T08:47:46.861Z,80.90
2023-05-15T08:48:56.099Z,81.00
2023-05-15T08:50:12.653Z,81.30
2023-05-15T08:51:16.194Z,81.40
2023-05-15T08:52:23.848Z,81.50
2023-05-15T08:53:29.398Z,81.60
2023-05-15T08:54:35.016Z,81.60
2023-05-15T08:55:39.595Z,81.80
2023-05-15T08:56:43.906Z,81.90
2023-05-15T08:57:50.419Z,82.00
2023-05-15T08:58:54.081Z,82.10
2023-05-15T09:00:01.453Z,82.20
2023-05-15T09:01:08.478Z,82.20
2023-05-15T09:02:12.125Z,82.30
2023-05-15T09:03:24.078Z,82.40
2023-05-15T09:04:28.478Z,82.50
2023-05-15T09:05:32.448Z,82.50
2023-05-15T09:06:43.051Z,82.50
2023-05-15T09:07:48.712Z,82.60
2023-05-15T09:08:58.225Z,82.60
2023-05-15T09:10:07.333Z,82.70
2023-05-15T09:11:13.072Z,82.70
2023-05-15T09:12:20.209Z,82.70
2023-05-15T09:13:25.911Z,82.70
2023-05-15T09:14:29.058Z,82.70
2023-05-15T09:15:37.293Z,82.70
2023-05-15T09:16:40.595Z,82.70
2023-05-15T09:17:51.860Z,82.70
2023-05-15T09:18:55.068Z,82.80
2023-05-15T09:20:02.259Z,82.70
2023-05-15T09:21:25.396Z,82.70
2023-05-15T09:22:29.437Z,82.60
2023-05-15T09:23:33.966Z,82.60
2023-05-15T09:24:39.672Z,82.70
2023-05-15T09:25:46.798Z,82.70
2023-05-15T09:27:04.263Z,82.70
2023-05-15T09:28:13.068Z,82.80
2023-05-15T09:29:19.660Z,82.90
2023-05-15T09:30:23.139Z,82.90
2023-05-15T09:31:29.636Z,83.00
2023-05-15T09:32:34.133Z,83.10
2023-05-15T09:33:39.738Z,83.00
2023-05-15T09:34:44.848Z,83.10
2023-05-15T09:35:48.850Z,83.20
2023-05-15T09:36:51.737Z,83.30
2023-05-15T09:38:01.193Z,83.30
2023-05-15T09:39:05.008Z,83.40
2023-05-15T09:40:09.867Z,83.40
2023-05-15T09:41:14.048Z,83.40
2023-05-15T09:42:17.018Z,83.40
2023-05-15T09:43:24.206Z,83.60
2023-05-15T09:44:33.045Z,83.60
2023-05-15T09:45:38.071Z,83.60
2023-05-15T09:46:45.363Z,83.60
2023-05-15T09:47:49.724Z,83.60
2023-05-15T09:48:56.748Z,83.60
2023-05-15T09:50:02.470Z,83.60
2023-05-15T09:51:15.624Z,83.60
2023-05-15T09:52:20.769Z,83.60
2023-05-15T09:53:29.687Z,83.60
2023-05-15T09:54:40.844Z,83.60
2023-05-15T09:55:45.163Z,83.60
2023-05-15T09:56:50.172Z,83.80
2023-05-15T09:58:10.160Z,83.90
2023-05-15T09:59:17.447Z,83.90
2023-05-15T10:00:28.017Z,84.00
2023-05-15T10:01:32.705Z,84.00
2023-05-15T10:02:36.540Z,84.00
2023-05-15T10:03:43.817Z,83.90
2023-05-15T10:04:57.158Z,84.00
2023-05-15T10:06:05.158Z,84.00
2023-05-15T10:07:10.178Z,83.60
2023-05-15T10:08:15.270Z,83.90
2023-05-15T10:09:22.971Z,83.90
2023-05-15T10:10:30.212Z,83.60
2023-05-15T10:11:37.941Z,83.60
2023-05-15T10:12:42.244Z,83.80
2023-05-15T10:13:45.932Z,83.80
2023-05-15T10:14:52.045Z,83.80
2023-05-15T10:15:58.046Z,83.80
2023-05-15T10:17:02.516Z,83.90
2023-05-15T10:18:09.285Z,84.00
2023-05-15T10:19:15.212Z,84.00
2023-05-15T10:20:28.261Z,84.00
2023-05-15T10:21:37.662Z,84.00
2023-05-15T10:22:44.656Z,84.00
2023-05-15T10:23:52.576Z,84.10
2023-05-15T10:25:10.975Z,84.10
2023-05-15T10:26:29.682Z,84.10
2023-05-15T10:27:36.781Z,84.10
2023-05-15T10:28:43.510Z,84.20
2023-05-15T10:29:53.480Z,84.20
2023-05-15T10:31:03.536Z,84.20
2023-05-15T10:32:06.904Z,84.10
2023-05-15T10:33:16.623Z,84.10
2023-05-15T10:34:24.120Z,84.10
2023-05-15T10:35:32.709Z,84.10
2023-05-15T10:36:39.322Z,84.10
2023-05-15T10:37:42.981Z,84.00
2023-05-15T10:38:49.249Z,84.00
2023-05-15T10:39:56.150Z,84.00
2023-05-15T10:41:15.773Z,84.00
2023-05-15T10:42:26.560Z,83.90
2023-05-15T10:43:30.400Z,83.80
2023-05-15T10:44:34.855Z,83.70
2023-05-15T10:45:38.864Z,83.40
2023-05-15T10:46:44.741Z,83.40
2023-05-15T10:47:49.950Z,83.40
2023-05-15T10:48:57.729Z,83.20
2023-05-15T10:50:01.242Z,83.10
2023-05-15T10:51:16.272Z,82.90
2023-05-15T10:52:21.964Z,83.00
2023-05-15T10:53:28.064Z,82.90
2023-05-15T10:54:31.805Z,82.80
2023-05-15T10:55:37.624Z,82.90
2023-05-15T10:56:42.418Z,82.90
2023-05-15T10:57:48.316Z,82.90
2023-05-15T10:58:58.196Z,82.80
2023-05-15T11:00:06.093Z,82.90
2023-05-15T11:01:32.631Z,82.70
2023-05-15T11:02:43.970Z,82.90
2023-05-15T11:03:51.041Z,83.00
2023-05-15T11:05:02.606Z,82.80
2023-05-15T11:06:10.921Z,82.70
2023-05-15T11:07:17.428Z,82.60
2023-05-15T11:08:26.461Z,82.50
2023-05-15T11:09:39.165Z,82.40
2023-05-15T11:10:42.255Z,82.40
2023-05-15T11:12:00.601Z,82.30
2023-05-15T11:13:05.253Z,82.00
2023-05-15T11:14:17.436Z,81.80
2023-05-15T11:15:22.637Z,81.60
2023-05-15T11:17:05.859Z,81.50
2023-05-15T11:18:12.510Z,81.30
2023-05-15T11:19:37.168Z,81.20
2023-05-15T11:21:11.775Z,81.10
2023-05-15T11:22:21.203Z,81.20
2023-05-15T11:24:48.882Z,80.90
2023-05-15T11:25:59.132Z,80.60
2023-05-15T11:27:04.792Z,80.50
2023-05-15T11:28:23.261Z,80.40
2023-05-15T11:29:26.921Z,80.20
2023-05-15T11:30:40.127Z,79.90
2023-05-15T11:31:44.220Z,79.70
2023-05-15T11:32:57.473Z,79.60
2023-05-15T11:34:11.635Z,79.20
2023-05-15T11:35:22.972Z,78.60
2023-05-15T11:36:30.011Z,78.10
2023-05-15T11:37:35.973Z,77.30
2023-05-15T11:38:43.597Z,76.30
2023-05-15T11:39:47.933Z,75.90
2023-05-15T11:40:56.719Z,75.50
2023-05-15T11:42:12.156Z,75.40
2023-05-15T11:43:25.662Z,75.30
2023-05-15T11:44:35.285Z,75.00
2023-05-15T11:45:44.330Z,75.10
2023-05-15T11:46:53.073Z,75.20
2023-05-15T11:47:56.229Z,75.10
2023-05-15T11:49:07.758Z,74.90
2023-05-15T11:51:21.624Z,74.60
2023-05-15T11:52:28.205Z,74.80
2023-05-15T11:53:34.588Z,74.20
2023-05-15T11:54:47.551Z,74.20
2023-05-15T11:55:57.100Z,74.10
2023-05-15T11:57:09.134Z,73.30
2023-05-15T11:58:27.008Z,72.70
2023-05-15T11:59:37.691Z,72.40
2023-05-15T12:00:55.444Z,72.50
2023-05-15T12:02:02.284Z,72.60
2023-05-15T12:03:21.052Z,72.40
2023-05-15T12:04:32.154Z,72.30
2023-05-15T12:05:56.995Z,72.20
2023-05-15T12:07:09.240Z,72.20
2023-05-15T12:08:16.431Z,72.30
2023-05-15T12:09:29.997Z,72.30
2023-05-15T12:10:43.833Z,72.40
2023-05-15T12:11:56.388Z,72.40
2023-05-15T12:13:06.069Z,72.20
2023-05-15T12:14:17.581Z,72.20
2023-05-15T12:15:24.555Z,72.20
2023-05-15T12:16:30.836Z,72.30
2023-05-15T12:17:46.388Z,72.50
2023-05-15T12:18:53.157Z,72.70
2023-05-15T12:19:59.143Z,72.90
2023-05-15T12:21:05.838Z,73.20
2023-05-15T12:22:22.174Z,73.60
2023-05-15T12:23:28.685Z,73.80
2023-05-15T12:24:36.589Z,74.00
2023-05-15T12:25:45.859Z,74.10
2023-05-15T12:26:57.423Z,74.00
2023-05-15T12:28:16.390Z,73.70
2023-05-15T12:29:22.034Z,73.60
2023-05-15T12:30:38.380Z,73.80
2023-05-15T12:31:57.085Z,73.80
2023-05-15T12:33:07.067Z,73.90
2023-05-15T12:34:11.539Z,73.90
2023-05-15T12:35:21.864Z,74.00
2023-05-15T12:36:29.959Z,74.10
2023-05-15T12:37:43.253Z,74.10
2023-05-15T12:38:49.925Z,74.50
2023-05-15T12:40:02.205Z,74.60
2023-05-15T12:41:07.582Z,74.90
2023-05-15T12:42:15.231Z,75.20
2023-05-15T12:43:21.689Z,75.40
2023-05-15T12:44:30.554Z,75.60
2023-05-15T12:45:41.580Z,75.80
2023-05-15T12:46:47.108Z,76.00
2023-05-15T12:48:04.260Z,76.40
2023-05-15T12:49:39.528Z,76.60
2023-05-15T12:50:53.445Z,76.80
2023-05-15T12:51:58.287Z,76.80
2023-05-15T12:53:15.549Z,77.00
2023-05-15T12:54:25.071Z,77.00
2023-05-15T12:55:43.992Z,77.20
2023-05-15T12:57:30.498Z,77.30
2023-05-15T12:58:37.944Z,77.20
2023-05-15T12:59:47.559Z,77.20
2023-05-15T13:00:54.983Z,77.10
2023-05-15T13:02:15.825Z,77.00
2023-05-15T13:03:24.055Z,76.80
2023-05-15T13:04:30.378Z,77.00
2023-05-15T13:05:46.462Z,77.10
2023-05-15T13:06:57.575Z,77.20
2023-05-15T13:08:05.889Z,77.20
2023-05-15T13:09:45.779Z,77.10
2023-05-15T13:11:01.031Z,77.10
2023-05-15T13:12:04.316Z,77.00
2023-05-15T13:13:08.785Z,77.00
2023-05-15T13:14:19.994Z,77.10
2023-05-15T13:15:30.470Z,77.00
2023-05-15T13:16:34.684Z,77.10
2023-05-15T13:17:43.047Z,77.10
2023-05-15T13:18:51.426Z,77.20
2023-05-15T13:20:00.852Z,77.30
2023-05-15T13:21:03.982Z,77.50
2023-05-15T13:25:15.938Z,78.00
2023-05-15T13:26:23.541Z,78.20
2023-05-15T13:27:27.480Z,78.40
2023-05-15T13:28:31.836Z,78.40
2023-05-15T13:29:46.818Z,78.40
2023-05-15T13:30:55.407Z,78.40
2023-05-15T13:31:59.811Z,78.40
2023-05-15T13:33:05.148Z,78.40
2023-05-15T13:34:15.061Z,78.40
2023-05-15T13:35:19.312Z,78.40
2023-05-15T13:36:25.865Z,78.40
2023-05-15T13:37:30.110Z,78.50
2023-05-15T13:38:35.617Z,78.50
2023-05-15T13:39:39.863Z,78.50
2023-05-15T13:40:43.930Z,78.50
2023-05-15T13:41:47.299Z,78.60
2023-05-15T13:42:56.856Z,78.60
2023-05-15T13:44:01.723Z,78.60
2023-05-15T13:45:09.702Z,78.60
2023-05-15T13:46:16.535Z,78.40
2023-05-15T13:47:25.434Z,78.50
2023-05-15T13:48:29.503Z,78.30
2023-05-15T13:49:35.716Z,78.40
2023-05-15T13:50:43.370Z,78.40
2023-05-15T13:51:50.678Z,78.50
2023-05-15T13:52:54.726Z,78.50
2023-05-15T13:54:02.102Z,78.60
2023-05-15T13:55:10.199Z,78.50
2023-05-15T13:56:14.826Z,78.50
2023-05-15T13:57:20.676Z,78.40
2023-05-15T13:58:27.999Z,78.40
2023-05-15T13:59:31.268Z,78.40
2023-05-15T14:00:35.695Z,78.50
2023-05-15T14:01:47.628Z,78.50
2023-05-15T14:02:52.049Z,78.50
2023-05-15T14:03:56.123Z,78.60
2023-05-15T14:05:00.349Z,78.60
2023-05-15T14:06:08.537Z,78.70
2023-05-15T14:07:17.292Z,78.80
2023-05-15T14:08:24.502Z,78.70
2023-05-15T14:09:34.088Z,78.90
2023-05-15T14:10:40.577Z,78.90
2023-05-15T14:11:44.755Z,79.10
2023-05-15T14:12:49.042Z,79.00
2023-05-15T14:13:53.485Z,79.10
2023-05-15T14:15:04.552Z,79.30
2023-05-15T14:16:14.691Z,79.30
2023-05-15T14:17:26.331Z,79.40
2023-05-15T14:18:31.964Z,79.40
2023-05-15T14:19:35.483Z,79.30
2023-05-15T14:20:39.434Z,79.20
2023-05-15T14:21:43.810Z,79.20
2023-05-15T14:22:53.084Z,79.30
2023-05-15T14:23:57.530Z,79.20
2023-05-15T14:25:04.085Z,79.20